createdAt,value
2017-09-13T00:00:43.591Z,0
2017-09-13T00:01:43.593Z,0
2017-09-13T00:02:43.593Z,0
2017-09-13T00:03:43.578Z,0
2017-09-13T00:04:43.569Z,0
2017-09-13T00:05:43.522Z,0
2017-09-13T00:06:43.593Z,0
2017-09-13T00:07:43.595Z,0
2017-09-13T00:08:43.521Z,0
2017-09-13T00:09:43.702Z,0
2017-09-13T00:10:43.659Z,0
2017-09-13T00:11:43.625Z,0
2017-09-13T00:12:43.628Z,0
2017-09-13T00:13:43.686Z,0
2017-09-13T00:14:43.630Z,0
2017-09-13T00:15:43.645Z,0
2017-09-13T00:16:43.628Z,0
2017-09-13T00:17:43.603Z,0
2017-09-13T00:18:43.634Z,0
2017-09-13T00:19:43.602Z,0
2017-09-13T00:20:43.654Z,0
2017-09-13T00:21:43.654Z,0
2017-09-13T00:22:43.619Z,0
2017-09-13T00:23:43.626Z,0
2017-09-13T00:24:43.595Z,0
2017-09-13T00:25:43.622Z,0
2017-09-13T00:26:43.659Z,0
2017-09-13T00:27:43.660Z,0
2017-09-13T00:28:43.598Z,0
2017-09-13T00:29:43.600Z,0
2017-09-13T00:30:43.663Z,0
2017-09-13T00:31:43.602Z,0
2017-09-13T00:32:43.600Z,0
2017-09-13T00:33:43.602Z,0
2017-09-13T00:34:43.631Z,0
2017-09-13T00:35:43.666Z,0
2017-09-13T00:36:43.631Z,0
2017-09-13T00:37:43.605Z,0
2017-09-13T00:38:43.632Z,0
2017-09-13T00:39:43.605Z,0
2017-09-13T00:40:43.808Z,0
2017-09-13T00:41:43.716Z,0
2017-09-13T00:42:43.653Z,0
2017-09-13T00:43:43.621Z,0
2017-09-13T00:44:43.721Z,0
2017-09-13T00:45:43.677Z,0
2017-09-13T00:46:43.677Z,0
2017-09-13T00:47:43.726Z,0
2017-09-13T00:48:43.724Z,0
2017-09-13T00:49:43.676Z,0
2017-09-13T00:50:43.680Z,0
2017-09-13T00:51:43.720Z,0
2017-09-13T00:52:43.676Z,0
2017-09-13T00:53:43.728Z,0
2017-09-13T00:54:43.721Z,0
2017-09-13T00:55:43.680Z,0
2017-09-13T00:56:43.726Z,0
2017-09-13T00:57:43.730Z,0
2017-09-13T00:58:43.692Z,0
2017-09-13T00:59:43.681Z,0
2017-09-13T01:00:43.669Z,0
2017-09-13T01:01:43.648Z,0
2017-09-13T01:02:43.682Z,0
2017-09-13T01:03:43.678Z,0
2017-09-13T01:04:43.680Z,0
2017-09-13T01:05:43.645Z,0
2017-09-13T01:06:43.649Z,0
2017-09-13T01:07:43.622Z,0
2017-09-13T01:08:43.621Z,0
2017-09-13T01:09:43.679Z,0
2017-09-13T01:10:43.734Z,0
2017-09-13T01:11:43.687Z,0
2017-09-13T01:12:43.689Z,0
2017-09-13T01:13:43.714Z,0
2017-09-13T01:14:43.671Z,0
2017-09-13T01:15:43.715Z,0
2017-09-13T01:16:43.691Z,0
2017-09-13T01:17:43.737Z,0
2017-09-13T01:18:43.694Z,0
2017-09-13T01:19:43.696Z,0
2017-09-13T01:20:43.658Z,0
2017-09-13T01:21:43.633Z,0
2017-09-13T01:22:43.631Z,0
2017-09-13T01:23:43.631Z,0
2017-09-13T01:24:43.658Z,0
2017-09-13T01:25:43.633Z,0
2017-09-13T01:26:43.697Z,0
2017-09-13T01:27:43.667Z,0
2017-09-13T01:28:43.694Z,0
2017-09-13T01:29:43.663Z,0
2017-09-13T01:30:43.611Z,0
2017-09-13T01:31:43.636Z,0
2017-09-13T01:32:43.652Z,0
2017-09-13T01:33:43.663Z,0
2017-09-13T01:34:43.648Z,0
2017-09-13T01:35:43.656Z,0
2017-09-13T01:36:43.650Z,0
2017-09-13T01:37:43.637Z,0
2017-09-13T01:38:43.621Z,0
2017-09-13T01:39:43.640Z,0
2017-09-13T01:40:43.709Z,0
2017-09-13T01:41:43.670Z,0
2017-09-13T01:42:43.669Z,0
2017-09-13T01:43:43.703Z,0
2017-09-13T01:44:43.644Z,0
2017-09-13T01:45:43.670Z,0
2017-09-13T01:46:43.682Z,0
2017-09-13T01:47:43.704Z,0
2017-09-13T01:48:43.677Z,0
2017-09-13T01:49:43.676Z,0
2017-09-13T01:50:43.763Z,0
2017-09-13T01:51:43.756Z,0
2017-09-13T01:52:43.667Z,0
2017-09-13T01:53:43.760Z,0
2017-09-13T01:54:43.719Z,0
2017-09-13T01:55:43.764Z,0
2017-09-13T01:56:43.762Z,0
2017-09-13T01:57:43.762Z,0
2017-09-13T01:58:43.712Z,0
2017-09-13T01:59:43.761Z,0
2017-09-13T02:00:43.640Z,0
2017-09-13T02:01:43.723Z,0
2017-09-13T02:02:43.683Z,0
2017-09-13T02:03:43.688Z,0
2017-09-13T02:04:43.665Z,0
2017-09-13T02:05:43.653Z,0
2017-09-13T02:06:43.635Z,0
2017-09-13T02:07:43.656Z,0
2017-09-13T02:08:43.616Z,0
2017-09-13T02:09:43.734Z,0
2017-09-13T02:10:43.718Z,0
2017-09-13T02:11:43.754Z,0
2017-09-13T02:12:43.706Z,0
2017-09-13T02:13:43.773Z,0
2017-09-13T02:14:43.732Z,0
2017-09-13T02:15:43.775Z,0
2017-09-13T02:16:48.081Z,0
2017-09-13T02:17:43.683Z,0
2017-09-13T02:18:43.727Z,0
2017-09-13T02:19:43.727Z,0
2017-09-13T02:20:43.726Z,0
2017-09-13T02:21:43.729Z,0
2017-09-13T02:22:43.728Z,0
2017-09-13T02:23:43.814Z,0
2017-09-13T02:24:43.796Z,0
2017-09-13T02:25:43.729Z,0
2017-09-13T02:26:43.686Z,0
2017-09-13T02:27:43.735Z,0
2017-09-13T02:28:43.779Z,0
2017-09-13T02:29:43.738Z,0
2017-09-13T02:30:43.783Z,0
2017-09-13T02:31:43.745Z,0
2017-09-13T02:32:43.683Z,0
2017-09-13T02:33:43.746Z,0
2017-09-13T02:34:43.678Z,0
2017-09-13T02:35:43.751Z,0
2017-09-13T02:36:43.773Z,0
2017-09-13T02:37:43.708Z,0
2017-09-13T02:38:43.685Z,0
2017-09-13T02:39:43.769Z,0
2017-09-13T02:40:43.812Z,0
2017-09-13T02:41:43.789Z,0
2017-09-13T02:42:43.744Z,0
2017-09-13T02:43:43.794Z,0
2017-09-13T02:44:43.794Z,0
2017-09-13T02:45:43.748Z,0
2017-09-13T02:46:43.790Z,0
2017-09-13T02:47:43.700Z,0
2017-09-13T02:48:43.749Z,0
2017-09-13T02:49:43.800Z,0
2017-09-13T02:50:43.752Z,0
2017-09-13T02:51:43.794Z,0
2017-09-13T02:52:43.702Z,0
2017-09-13T02:53:43.747Z,0
2017-09-13T02:54:43.802Z,0
2017-09-13T02:55:43.795Z,0
2017-09-13T02:56:43.797Z,0
2017-09-13T02:57:43.800Z,0
2017-09-13T02:58:43.719Z,0
2017-09-13T02:59:43.771Z,0
2017-09-13T03:00:43.803Z,0
2017-09-13T03:01:43.796Z,0
2017-09-13T03:02:43.753Z,0
2017-09-13T03:03:43.757Z,0
2017-09-13T03:04:43.802Z,0
2017-09-13T03:05:43.798Z,0
2017-09-13T03:06:43.711Z,0
2017-09-13T03:07:43.709Z,0
2017-09-13T03:08:43.825Z,0
2017-09-13T03:09:43.760Z,0
2017-09-13T03:10:43.825Z,0
2017-09-13T03:11:43.753Z,0
2017-09-13T03:12:43.721Z,0
2017-09-13T03:13:43.698Z,0
2017-09-13T03:14:43.759Z,0
2017-09-13T03:15:43.727Z,0
2017-09-13T03:16:43.718Z,0
2017-09-13T03:17:43.703Z,0
2017-09-13T03:18:43.730Z,0
2017-09-13T03:19:43.728Z,0
2017-09-13T03:20:43.766Z,0
2017-09-13T03:21:43.769Z,0
2017-09-13T03:22:43.747Z,0
2017-09-13T03:23:43.811Z,0
2017-09-13T03:24:43.811Z,0
2017-09-13T03:25:43.817Z,0
2017-09-13T03:26:43.730Z,0
2017-09-13T03:27:43.813Z,0
2017-09-13T03:28:43.814Z,0
2017-09-13T03:29:43.847Z,0
2017-09-13T03:30:43.743Z,0
2017-09-13T03:31:43.724Z,0
2017-09-13T03:32:43.829Z,0
2017-09-13T03:33:43.801Z,0
2017-09-13T03:34:43.745Z,0
2017-09-13T03:35:43.727Z,0
2017-09-13T03:36:43.766Z,0
2017-09-13T03:37:43.824Z,0
2017-09-13T03:38:43.824Z,0
2017-09-13T03:39:43.844Z,0
2017-09-13T03:40:43.778Z,0
2017-09-13T03:41:43.791Z,0
2017-09-13T03:42:43.772Z,0
2017-09-13T03:43:43.788Z,0
2017-09-13T03:44:43.780Z,0
2017-09-13T03:45:43.819Z,0
2017-09-13T03:46:43.809Z,0
2017-09-13T03:47:43.782Z,0
2017-09-13T03:48:43.833Z,0
2017-09-13T03:49:43.784Z,0
2017-09-13T03:50:43.723Z,0
2017-09-13T03:51:43.649Z,0
2017-09-13T03:52:43.727Z,0
2017-09-13T03:53:43.656Z,0
2017-09-13T03:54:43.715Z,0
2017-09-13T03:55:43.717Z,0
2017-09-13T03:56:43.724Z,0
2017-09-13T03:57:43.695Z,0
2017-09-13T03:58:43.734Z,0
2017-09-13T03:59:43.698Z,0
2017-09-13T04:00:43.819Z,0
2017-09-13T04:01:43.784Z,0
2017-09-13T04:02:43.814Z,0
2017-09-13T04:03:43.788Z,0
2017-09-13T04:04:43.798Z,0
2017-09-13T04:05:43.815Z,0
2017-09-13T04:06:43.799Z,0
2017-09-13T04:07:43.814Z,0
2017-09-13T04:08:43.772Z,0
2017-09-13T04:09:43.792Z,0
2017-09-13T04:10:43.803Z,0
2017-09-13T04:11:43.805Z,0
2017-09-13T04:12:43.823Z,0
2017-09-13T04:13:43.802Z,0
2017-09-13T04:14:43.796Z,0
2017-09-13T04:15:43.758Z,0
2017-09-13T04:16:43.805Z,0
2017-09-13T04:17:43.839Z,0
2017-09-13T04:18:43.802Z,0
2017-09-13T04:19:43.813Z,0
2017-09-13T04:20:43.795Z,0
2017-09-13T04:21:43.797Z,0
2017-09-13T04:22:43.801Z,0
2017-09-13T04:23:43.739Z,0
2017-09-13T04:24:43.805Z,0
2017-09-13T04:25:43.801Z,4
2017-09-13T04:26:43.740Z,4
2017-09-13T04:27:43.770Z,4
2017-09-13T04:28:43.801Z,4
2017-09-13T04:29:43.743Z,0
2017-09-13T04:30:43.836Z,4
2017-09-13T04:31:43.773Z,4
2017-09-13T04:32:43.838Z,4
2017-09-13T04:33:43.817Z,8
2017-09-13T04:34:43.842Z,12
2017-09-13T04:35:43.788Z,12
2017-09-13T04:36:43.804Z,16
2017-09-13T04:37:43.755Z,20
2017-09-13T04:38:43.823Z,24
2017-09-13T04:39:43.823Z,32
2017-09-13T04:40:43.816Z,44
2017-09-13T04:41:43.811Z,48
2017-09-13T04:42:43.811Z,60
2017-09-13T04:43:43.809Z,72
2017-09-13T04:44:43.782Z,80
2017-09-13T04:45:43.817Z,84
2017-09-13T04:46:43.758Z,88
2017-09-13T04:47:43.781Z,100
2017-09-13T04:48:43.820Z,108
2017-09-13T04:49:43.762Z,124
2017-09-13T04:50:43.797Z,136
2017-09-13T04:51:43.819Z,152
2017-09-13T04:52:43.821Z,168
2017-09-13T04:53:43.769Z,168
2017-09-13T04:54:43.873Z,176
2017-09-13T04:55:43.804Z,208
2017-09-13T04:56:43.775Z,220
2017-09-13T04:57:43.820Z,248
2017-09-13T04:58:43.875Z,300
2017-09-13T04:59:43.802Z,368
2017-09-13T05:00:43.817Z,420
2017-09-13T05:01:43.765Z,464
2017-09-13T05:02:43.823Z,488
2017-09-13T05:03:43.764Z,480
2017-09-13T05:04:43.819Z,400
2017-09-13T05:05:43.795Z,512
2017-09-13T05:06:43.766Z,524
2017-09-13T05:07:43.821Z,504
2017-09-13T05:08:43.896Z,516
2017-09-13T05:09:43.873Z,564
2017-09-13T05:10:43.774Z,564
2017-09-13T05:11:43.833Z,604
2017-09-13T05:12:43.904Z,616
2017-09-13T05:13:43.869Z,624
2017-09-13T05:14:43.871Z,788
2017-09-13T05:15:43.845Z,788
2017-09-13T05:16:43.800Z,852
2017-09-13T05:17:43.865Z,884
2017-09-13T05:18:43.845Z,1180
2017-09-13T05:19:43.841Z,1200
2017-09-13T05:20:43.780Z,1608
2017-09-13T05:21:43.840Z,1724
2017-09-13T05:22:43.841Z,1828
2017-09-13T05:23:43.886Z,1944
2017-09-13T05:25:43.877Z,2772
2017-09-13T05:26:43.790Z,2832
2017-09-13T05:27:43.827Z,2356
2017-09-13T05:28:43.789Z,2200
2017-09-13T05:29:43.827Z,1912
2017-09-13T05:30:43.905Z,1652
2017-09-13T05:31:43.840Z,1620
2017-09-13T05:32:43.841Z,1260
2017-09-13T05:33:43.893Z,980
2017-09-13T05:34:43.889Z,912
2017-09-13T05:35:43.895Z,900
2017-09-13T05:36:43.816Z,948
2017-09-13T05:37:43.828Z,1220
2017-09-13T05:38:43.981Z,1560
2017-09-13T05:39:43.899Z,1656
2017-09-13T05:40:43.793Z,1844
2017-09-13T05:41:43.902Z,1920
2017-09-13T05:42:43.845Z,2156
2017-09-13T05:43:43.797Z,2528
2017-09-13T05:44:43.831Z,2752
2017-09-13T05:45:43.902Z,2236
2017-09-13T05:46:43.859Z,1852
2017-09-13T05:47:43.800Z,1796
2017-09-13T05:48:43.813Z,1980
2017-09-13T05:49:43.853Z,2224
2017-09-13T05:50:43.800Z,2708
2017-09-13T05:51:43.887Z,3084
2017-09-13T05:52:43.827Z,2988
2017-09-13T05:53:43.818Z,2360
2017-09-13T05:54:43.893Z,2200
2017-09-13T05:55:43.802Z,2388
2017-09-13T05:56:43.853Z,3160
2017-09-13T05:57:43.959Z,4132
2017-09-13T05:58:43.818Z,3976
2017-09-13T05:59:43.826Z,3540
2017-09-13T06:00:43.798Z,3184
2017-09-13T06:01:43.843Z,3260
2017-09-13T06:02:43.890Z,3216
2017-09-13T06:03:43.866Z,3396
2017-09-13T06:04:43.935Z,4072
2017-09-13T06:05:43.905Z,4116
2017-09-13T06:06:43.916Z,4192
2017-09-13T06:07:43.904Z,4808
2017-09-13T06:08:43.907Z,4908
2017-09-13T06:09:44.059Z,4764
2017-09-13T06:10:43.827Z,4368
2017-09-13T06:11:43.838Z,3952
2017-09-13T06:12:43.907Z,3808
2017-09-13T06:13:43.814Z,3888
2017-09-13T06:14:43.916Z,3844
2017-09-13T06:15:43.813Z,4324
2017-09-13T06:16:43.831Z,3788
2017-09-13T06:17:43.912Z,4200
2017-09-13T06:18:43.851Z,4012
2017-09-13T06:19:43.878Z,3792
2017-09-13T06:20:43.878Z,3540
2017-09-13T06:21:43.869Z,3588
2017-09-13T06:22:43.874Z,3592
2017-09-13T06:23:43.852Z,3348
2017-09-13T06:24:43.874Z,3056
2017-09-13T06:25:43.857Z,3320
2017-09-13T06:26:43.877Z,4092
2017-09-13T06:27:43.919Z,5000
2017-09-13T06:28:43.922Z,5740
2017-09-13T06:29:43.944Z,5596
2017-09-13T06:30:43.931Z,5000
2017-09-13T06:31:43.906Z,5312
2017-09-13T06:32:43.921Z,5744
2017-09-13T06:33:43.893Z,5572
2017-09-13T06:34:43.893Z,5036
2017-09-13T06:35:43.888Z,4424
2017-09-13T06:36:43.857Z,3940
2017-09-13T06:37:44.065Z,4972
2017-09-13T06:38:43.830Z,5392
2017-09-13T06:39:43.880Z,5992
2017-09-13T06:40:43.845Z,5964
2017-09-13T06:41:43.895Z,7192
2017-09-13T06:42:43.868Z,7044
2017-09-13T06:43:43.885Z,7012
2017-09-13T06:44:43.937Z,7052
2017-09-13T06:45:43.938Z,9244
2017-09-13T06:46:43.981Z,10504
2017-09-13T06:47:43.918Z,9668
2017-09-13T06:48:43.891Z,7844
2017-09-13T06:49:43.939Z,10324
2017-09-13T06:50:43.915Z,11288
2017-09-13T06:51:43.854Z,9160
2017-09-13T06:52:43.890Z,8092
2017-09-13T06:53:43.855Z,9176
2017-09-13T06:54:43.823Z,9748
2017-09-13T06:55:43.856Z,9708
2017-09-13T06:56:43.825Z,9620
2017-09-13T06:57:43.832Z,8652
2017-09-13T06:58:43.829Z,10716
2017-09-13T06:59:43.857Z,13144
2017-09-13T07:00:43.894Z,14648
2017-09-13T07:01:43.857Z,15552
2017-09-13T07:02:43.850Z,17036
2017-09-13T07:03:43.907Z,16260
2017-09-13T07:04:43.899Z,15528
2017-09-13T07:05:43.899Z,11984
2017-09-13T07:06:43.898Z,11212
2017-09-13T07:07:43.927Z,14580
2017-09-13T07:08:43.899Z,21120
2017-09-13T07:09:43.880Z,29664
2017-09-13T07:10:43.953Z,34528
2017-09-13T07:11:43.953Z,27168
2017-09-13T07:12:43.870Z,24960
2017-09-13T07:13:43.904Z,22208
2017-09-13T07:14:43.881Z,23808
2017-09-13T07:15:43.904Z,28576
2017-09-13T07:16:43.963Z,28192
2017-09-13T07:17:43.856Z,28768
2017-09-13T07:18:43.902Z,26304
2017-09-13T07:19:43.912Z,24608
2017-09-13T07:20:43.951Z,17644
2017-09-13T07:21:43.856Z,13324
2017-09-13T07:22:43.889Z,15816
2017-09-13T07:23:43.941Z,19496
2017-09-13T07:24:43.936Z,22048
2017-09-13T07:25:43.855Z,27168
2017-09-13T07:26:43.852Z,35104
2017-09-13T07:27:43.892Z,44768
2017-09-13T07:28:43.850Z,43840
2017-09-13T07:29:43.948Z,56160
2017-09-13T07:30:43.918Z,20736
2017-09-13T07:31:43.922Z,14948
2017-09-13T07:32:43.875Z,12120
2017-09-13T07:33:43.930Z,13276
2017-09-13T07:34:43.882Z,13896
2017-09-13T07:35:43.981Z,14060
2017-09-13T07:36:43.915Z,20464
2017-09-13T07:37:43.968Z,31584
2017-09-13T07:38:43.924Z,33056
2017-09-13T07:39:43.923Z,25152
2017-09-13T07:40:43.921Z,22848
2017-09-13T07:41:43.902Z,19880
2017-09-13T07:42:43.862Z,21376
2017-09-13T07:43:43.896Z,22944
2017-09-13T07:44:43.866Z,18988
2017-09-13T07:45:43.966Z,17040
2017-09-13T07:46:43.870Z,28896
2017-09-13T07:47:43.969Z,26368
2017-09-13T07:48:43.932Z,19528
2017-09-13T07:49:43.887Z,26176
2017-09-13T07:50:43.977Z,31104
2017-09-13T07:51:43.930Z,29376
2017-09-13T07:52:43.899Z,28192
2017-09-13T07:53:43.942Z,25632
2017-09-13T07:54:43.969Z,61376
2017-09-13T07:55:43.943Z,93504
2017-09-13T07:56:43.936Z,31552
2017-09-13T07:57:43.881Z,30368
2017-09-13T07:58:43.942Z,26048
2017-09-13T07:59:43.922Z,25280
2017-09-13T08:00:43.907Z,22112
2017-09-13T08:01:43.960Z,21440
2017-09-13T08:02:43.883Z,22112
2017-09-13T08:03:43.884Z,18992
2017-09-13T08:04:43.882Z,18784
2017-09-13T08:05:43.988Z,20212
2017-09-13T08:06:43.987Z,24992
2017-09-13T08:07:43.944Z,28960
2017-09-13T08:08:43.884Z,31584
2017-09-13T08:09:43.879Z,24032
2017-09-13T08:10:43.978Z,22560
2017-09-13T08:11:44.019Z,36704
2017-09-13T08:12:43.989Z,45504
2017-09-13T08:13:43.991Z,39392
2017-09-13T08:14:43.990Z,82560
2017-09-13T08:15:43.984Z,38176
2017-09-13T08:16:43.890Z,37152
2017-09-13T08:17:43.969Z,57792
2017-09-13T08:18:43.940Z,39776
2017-09-13T08:19:43.949Z,49472
2017-09-13T08:20:43.940Z,43200
2017-09-13T08:21:43.948Z,84128
2017-09-13T08:22:43.956Z,106624
2017-09-13T08:23:44.001Z,112576
2017-09-13T08:24:43.942Z,114432
2017-09-13T08:25:43.890Z,107744
2017-09-13T08:26:43.968Z,104800
2017-09-13T08:27:43.986Z,105760
2017-09-13T08:28:43.997Z,86432
2017-09-13T08:29:43.975Z,98656
2017-09-13T08:30:43.953Z,92384
2017-09-13T08:31:43.992Z,100960
2017-09-13T08:32:43.976Z,105824
2017-09-13T08:33:43.893Z,109760
2017-09-13T08:34:43.929Z,106272
2017-09-13T08:35:43.949Z,113152
2017-09-13T08:36:43.965Z,122720
2017-09-13T08:37:43.903Z,119104
2017-09-13T08:38:43.965Z,62688
2017-09-13T08:39:43.996Z,42784
2017-09-13T08:40:43.963Z,63584
2017-09-13T08:41:43.950Z,45280
2017-09-13T08:42:43.982Z,119552
2017-09-13T08:43:43.933Z,122176
2017-09-13T08:44:43.920Z,45440
2017-09-13T08:45:43.937Z,44032
2017-09-13T08:46:43.918Z,51968
2017-09-13T08:47:44.010Z,56896
2017-09-13T08:48:43.908Z,130304
2017-09-13T08:49:43.936Z,45632
2017-09-13T08:50:44.007Z,68256
2017-09-13T08:51:43.965Z,60128
2017-09-13T08:52:43.941Z,92096
2017-09-13T08:53:43.943Z,130208
2017-09-13T08:54:44.013Z,36768
2017-09-13T08:55:43.921Z,38016
2017-09-13T08:56:44.014Z,111712
2017-09-13T08:57:43.975Z,36704
2017-09-13T08:58:43.909Z,36096
2017-09-13T08:59:43.973Z,31328
2017-09-13T09:00:43.933Z,40384
2017-09-13T09:01:43.979Z,41024
2017-09-13T09:02:43.925Z,39200
2017-09-13T09:03:43.941Z,36800
2017-09-13T09:04:43.972Z,36960
2017-09-13T09:05:44.014Z,41088
2017-09-13T09:06:43.950Z,60320
2017-09-13T09:07:44.005Z,116448
2017-09-13T09:08:43.977Z,48960
2017-09-13T09:09:43.914Z,37696
2017-09-13T09:10:43.931Z,39776
2017-09-13T09:11:44.012Z,38816
2017-09-13T09:12:43.952Z,47904
2017-09-13T09:13:44.015Z,139904
2017-09-13T09:14:43.972Z,44640
2017-09-13T09:15:43.977Z,33952
2017-09-13T09:16:43.976Z,33344
2017-09-13T09:17:44.048Z,42944
2017-09-13T09:19:44.030Z,40864
2017-09-13T09:20:43.979Z,35744
2017-09-13T09:21:44.017Z,41344
2017-09-13T09:22:44.005Z,138304
2017-09-13T09:23:43.975Z,50464
2017-09-13T09:24:43.986Z,133088
2017-09-13T09:25:43.989Z,129248
2017-09-13T09:26:43.978Z,123808
2017-09-13T09:27:44.006Z,76896
2017-09-13T09:28:44.004Z,51296
2017-09-13T09:29:44.026Z,141120
2017-09-13T09:30:44.033Z,70176
2017-09-13T09:31:43.918Z,52288
2017-09-13T09:32:43.920Z,43008
2017-09-13T09:33:43.981Z,31424
2017-09-13T09:34:43.919Z,44704
2017-09-13T09:35:43.984Z,42976
2017-09-13T09:36:43.920Z,144928
2017-09-13T09:37:43.952Z,108864
2017-09-13T09:38:44.044Z,96864
2017-09-13T09:39:43.987Z,77696
2017-09-13T09:40:43.992Z,143552
2017-09-13T09:41:43.935Z,59200
2017-09-13T09:42:43.908Z,128928
2017-09-13T09:43:43.997Z,102912
2017-09-13T09:44:43.999Z,130976
2017-09-13T09:45:43.911Z,133408
2017-09-13T09:46:44.003Z,130848
2017-09-13T09:47:43.942Z,48320
2017-09-13T09:48:43.901Z,136960
2017-09-13T09:49:43.971Z,143456
2017-09-13T09:50:43.930Z,124672
2017-09-13T09:51:44.042Z,51776
2017-09-13T09:52:44.149Z,43808
2017-09-13T09:53:43.994Z,39456
2017-09-13T09:54:44.068Z,42528
2017-09-13T09:55:43.949Z,50976
2017-09-13T09:56:44.048Z,53504
2017-09-13T09:57:43.998Z,62464
2017-09-13T09:58:43.980Z,51168
2017-09-13T09:59:44.054Z,49984
2017-09-13T10:00:44.051Z,48992
2017-09-13T10:01:44.002Z,51296
2017-09-13T10:02:44.008Z,52512
2017-09-13T10:03:44.056Z,150624
2017-09-13T10:04:44.050Z,75200
2017-09-13T10:05:44.030Z,50336
2017-09-13T10:06:44.015Z,42848
2017-09-13T10:07:44.006Z,44224
2017-09-13T10:08:43.989Z,146304
2017-09-13T10:09:44.006Z,101312
2017-09-13T10:10:43.985Z,151904
2017-09-13T10:11:44.002Z,155136
2017-09-13T10:12:44.044Z,128160
2017-09-13T10:13:43.969Z,46784
2017-09-13T10:14:44.019Z,43648
2017-09-13T10:15:43.953Z,39584
2017-09-13T10:16:44.041Z,36384
2017-09-13T10:17:43.987Z,40576
2017-09-13T10:18:43.974Z,34048
2017-09-13T10:19:43.985Z,30656
2017-09-13T10:20:44.033Z,32480
2017-09-13T10:21:44.031Z,32800
2017-09-13T10:22:44.027Z,32352
2017-09-13T10:23:43.962Z,49312
2017-09-13T10:24:43.981Z,46912
2017-09-13T10:25:44.004Z,41216
2017-09-13T10:26:44.013Z,38400
2017-09-13T10:27:44.023Z,46592
2017-09-13T10:28:44.012Z,116896
2017-09-13T10:29:44.022Z,59648
2017-09-13T10:30:43.980Z,108256
2017-09-13T10:31:43.979Z,96160
2017-09-13T10:32:43.997Z,52576
2017-09-13T10:33:44.024Z,41664
2017-09-13T10:34:44.033Z,39264
2017-09-13T10:35:44.059Z,37472
2017-09-13T10:36:43.963Z,38336
2017-09-13T10:37:43.999Z,42080
2017-09-13T10:38:44.061Z,46368
2017-09-13T10:39:44.064Z,58144
2017-09-13T10:40:43.968Z,75584
2017-09-13T10:41:44.065Z,100288
2017-09-13T10:42:44.061Z,43008
2017-09-13T10:43:44.020Z,32256
2017-09-13T10:44:44.010Z,33600
2017-09-13T10:45:43.991Z,57568
2017-09-13T10:46:43.987Z,128512
2017-09-13T10:47:44.037Z,70176
2017-09-13T10:48:44.035Z,46592
2017-09-13T10:49:44.061Z,49632
2017-09-13T10:50:44.037Z,51104
2017-09-13T10:51:43.979Z,52960
2017-09-13T10:52:44.107Z,49568
2017-09-13T10:53:44.073Z,58528
2017-09-13T10:54:44.038Z,59872
2017-09-13T10:55:44.041Z,58624
2017-09-13T10:56:44.206Z,64128
2017-09-13T10:57:44.012Z,59200
2017-09-13T10:58:44.084Z,69056
2017-09-13T10:59:44.049Z,114784
2017-09-13T11:00:44.043Z,78016
2017-09-13T11:01:44.038Z,83648
2017-09-13T11:02:44.038Z,72416
2017-09-13T11:03:44.038Z,55040
2017-09-13T11:04:44.080Z,57728
2017-09-13T11:05:44.094Z,51264
2017-09-13T11:06:44.066Z,62080
2017-09-13T11:07:44.050Z,70880
2017-09-13T11:08:44.086Z,68544
2017-09-13T11:09:44.059Z,52288
2017-09-13T11:10:44.030Z,49248
2017-09-13T11:11:44.006Z,60352
2017-09-13T11:12:44.042Z,80576
2017-09-13T11:13:44.040Z,89376
2017-09-13T11:14:44.008Z,196000
2017-09-13T11:15:44.048Z,92704
2017-09-13T11:16:44.011Z,108448
2017-09-13T11:17:43.979Z,87168
2017-09-13T11:18:43.980Z,70240
2017-09-13T11:19:43.982Z,79424
2017-09-13T11:20:44.045Z,141664
2017-09-13T11:21:43.991Z,115200
2017-09-13T11:22:44.056Z,131680
2017-09-13T11:23:43.996Z,127872
2017-09-13T11:24:44.048Z,125376
2017-09-13T11:25:43.993Z,35040
2017-09-13T11:26:44.077Z,48416
2017-09-13T11:27:44.026Z,143360
2017-09-13T11:28:44.014Z,57408
2017-09-13T11:29:44.086Z,57280
2017-09-13T11:30:44.058Z,120320
2017-09-13T11:31:44.038Z,44512
2017-09-13T11:32:44.111Z,45120
2017-09-13T11:33:44.074Z,65088
2017-09-13T11:34:44.039Z,60832
2017-09-13T11:35:44.059Z,45152
2017-09-13T11:36:44.104Z,133888
2017-09-13T11:37:44.125Z,137792
2017-09-13T11:38:44.109Z,135296
2017-09-13T11:39:44.076Z,138112
2017-09-13T11:40:44.112Z,143584
2017-09-13T11:41:44.058Z,139904
2017-09-13T11:42:44.029Z,137184
2017-09-13T11:43:44.066Z,135808
2017-09-13T11:44:44.059Z,134176
2017-09-13T11:45:44.000Z,129984
2017-09-13T11:46:44.024Z,126848
2017-09-13T11:47:44.034Z,135136
2017-09-13T11:48:44.033Z,48032
2017-09-13T11:49:44.004Z,46144
2017-09-13T11:50:44.062Z,140448
2017-09-13T11:51:44.071Z,138432
2017-09-13T11:53:44.039Z,135968
2017-09-13T11:54:44.003Z,123232
2017-09-13T11:55:44.069Z,122880
2017-09-13T11:56:44.064Z,140320
2017-09-13T11:57:44.065Z,137152
2017-09-13T11:58:44.006Z,125536
2017-09-13T11:59:44.008Z,122720
2017-09-13T12:00:44.074Z,120192
2017-09-13T12:01:43.996Z,124320
2017-09-13T12:02:43.983Z,129184
2017-09-13T12:03:44.034Z,130144
2017-09-13T12:04:44.037Z,130336
2017-09-13T12:05:43.981Z,132224
2017-09-13T12:06:43.988Z,132480
2017-09-13T12:07:44.031Z,128928
2017-09-13T12:08:44.017Z,50112
2017-09-13T12:09:44.091Z,132832
2017-09-13T12:10:44.004Z,129696
2017-09-13T12:11:44.045Z,128864
2017-09-13T12:12:44.016Z,128704
2017-09-13T12:13:44.080Z,130048
2017-09-13T12:14:44.083Z,130432
2017-09-13T12:15:44.020Z,130880
2017-09-13T12:16:44.077Z,134496
2017-09-13T12:17:44.018Z,130752
2017-09-13T12:18:44.050Z,124480
2017-09-13T12:19:44.081Z,123616
2017-09-13T12:20:44.051Z,126336
2017-09-13T12:21:44.127Z,126368
2017-09-13T12:22:44.133Z,123200
2017-09-13T12:23:44.092Z,122848
2017-09-13T12:24:44.033Z,119936
2017-09-13T12:25:44.131Z,118208
2017-09-13T12:26:44.038Z,118816
2017-09-13T12:27:44.032Z,121920
2017-09-13T12:28:44.141Z,127520
2017-09-13T12:29:44.141Z,70048
2017-09-13T12:30:44.033Z,125792
2017-09-13T12:31:44.036Z,124608
2017-09-13T12:32:44.097Z,130624
2017-09-13T12:33:44.143Z,131232
2017-09-13T12:34:44.100Z,126688
2017-09-13T12:36:44.098Z,50720
2017-09-13T12:37:44.089Z,54176
2017-09-13T12:38:44.083Z,56608
2017-09-13T12:39:44.148Z,60832
2017-09-13T12:40:44.097Z,108928
2017-09-13T12:41:44.096Z,49440
2017-09-13T12:42:44.094Z,44288
2017-09-13T12:43:44.066Z,41120
2017-09-13T12:44:44.098Z,43168
2017-09-13T12:45:44.092Z,52960
2017-09-13T12:46:44.068Z,50528
2017-09-13T12:47:44.099Z,50304
2017-09-13T12:48:44.037Z,45120
2017-09-13T12:49:44.067Z,44608
2017-09-13T12:50:44.067Z,140128
2017-09-13T12:51:44.105Z,54752
2017-09-13T12:52:44.104Z,88800
2017-09-13T12:53:44.150Z,60704
2017-09-13T12:54:44.156Z,53216
2017-09-13T12:55:44.086Z,45632
2017-09-13T12:56:44.058Z,32544
2017-09-13T12:57:44.117Z,31424
2017-09-13T12:58:44.151Z,112928
2017-09-13T12:59:44.157Z,112224
2017-09-13T13:00:44.138Z,43072
2017-09-13T13:01:44.121Z,52768
2017-09-13T13:02:44.093Z,43424
2017-09-13T13:03:44.054Z,53440
2017-09-13T13:04:44.130Z,128000
2017-09-13T13:05:44.092Z,107040
2017-09-13T13:06:44.154Z,86592
2017-09-13T13:07:44.158Z,89664
2017-09-13T13:08:44.090Z,131040
2017-09-13T13:09:44.079Z,115776
2017-09-13T13:10:44.166Z,34624
2017-09-13T13:11:44.080Z,109792
2017-09-13T13:12:44.099Z,60960
2017-09-13T13:13:44.164Z,39040
2017-09-13T13:14:44.161Z,86592
2017-09-13T13:15:44.102Z,48864
2017-09-13T13:16:44.119Z,114624
2017-09-13T13:17:44.130Z,35744
2017-09-13T13:18:44.118Z,47584
2017-09-13T13:19:44.171Z,83904
2017-09-13T13:20:44.116Z,46336
2017-09-13T13:21:44.172Z,45632
2017-09-13T13:22:44.153Z,53952
2017-09-13T13:23:44.084Z,35968
2017-09-13T13:24:44.099Z,34496
2017-09-13T13:25:44.143Z,38848
2017-09-13T13:26:44.104Z,36288
2017-09-13T13:27:44.153Z,33408
2017-09-13T13:28:44.100Z,33728
2017-09-13T13:30:44.106Z,35552
2017-09-13T13:31:44.102Z,32672
2017-09-13T13:32:44.127Z,33600
2017-09-13T13:33:44.114Z,36480
2017-09-13T13:34:44.204Z,116256
2017-09-13T13:35:44.158Z,39648